logo liguriameteo

Diretta Meteo Parigi-Le Bourget, Franciagiovedì 13 giugno ore 13:30

Mappa
Sereno 20 °C Sereno 24 Ore: T.min 9 T.max 20
Ponente Sud Km/h 22.2 Punto di rugiada: 4 °C Umidità: 34% Visibilità: 10 Km
Il sole sorge alle: 05:43 Il sole tramonta alle: 21:57
13 Giugno 2024 13:30 tempo osservato: Sereno Sereno 20 34 1016 vento: Nord S 22.2
13 Giugno 2024 13:00 tempo osservato: Sereno Sereno 19 39 1017 vento: Nord S/SO 18.5
13 Giugno 2024 12:30 tempo osservato: Sereno Sereno 19 39 1017 vento: Nord S/SO 16.7
13 Giugno 2024 12:00 tempo osservato: Nuvoloso Nuvoloso 18 42 1017 vento: Nord S/SO 18.5
13 Giugno 2024 11:30 tempo osservato: Molto Nuvoloso Molto Nuvoloso 17 48 1018 vento: Nord S/SO 18.5
13 Giugno 2024 11:00 tempo osservato: Molto Nuvoloso Molto Nuvoloso 17 55 1018 vento: Nord N 14.8
13 Giugno 2024 10:30 tempo osservato: Sereno Sereno 17 55 1018 vento: Nord S 9.3
13 Giugno 2024 10:00 tempo osservato: Sereno Sereno 16 51 1018 vento: Nord N 5.5
13 Giugno 2024 09:30 tempo osservato: Poco Nuvoloso Poco Nuvoloso 15 58 1019 vento: Nord N 3.7
13 Giugno 2024 09:00 tempo osservato: Sereno Sereno 14 67 1019 vento: Nord N 3.7
13 Giugno 2024 08:30 tempo osservato: Sereno Sereno 14 67 1019 vento: Nord N 1.8
13 Giugno 2024 08:00 tempo osservato: Sereno Sereno 13 71 1019 vento: Nord N 1.8
13 Giugno 2024 07:30 tempo osservato: Sereno Sereno 12 81 1019 vento: Nord N 0
13 Giugno 2024 07:00 tempo osservato: Sereno Sereno 10 93 1019 vento: Nord N 0
13 Giugno 2024 06:30 tempo osservato: Nuvoloso Nuvoloso 9 93 1019 vento: Nord N 1.8
13 Giugno 2024 06:00 tempo osservato: Molto Nuvoloso Molto Nuvoloso 9 93 1019 vento: Nord N 0
13 Giugno 2024 05:30 tempo osservato: Sereno Sereno 9 93 1020 vento: Nord N 3.7
13 Giugno 2024 05:00 tempo osservato: Sereno Sereno 10 87 1019 vento: Nord N 5.5
13 Giugno 2024 04:30 tempo osservato: Sereno Sereno 10 87 1020 vento: Nord N 5.5
13 Giugno 2024 04:00 tempo osservato: Sereno Sereno 10 87 1020 vento: Nord N 3.7
13 Giugno 2024 03:30 tempo osservato: Sereno Sereno 11 81 1020 vento: Nord N 3.7
13 Giugno 2024 03:00 tempo osservato: Sereno Sereno 11 81 1020 vento: Nord N 3.7
13 Giugno 2024 02:30 tempo osservato: Sereno Sereno 12 81 1020 vento: Nord N 5.5
13 Giugno 2024 02:00 tempo osservato: Sereno Sereno 12 81 1020 vento: Nord N 5.5
13 Giugno 2024 01:30 tempo osservato: Sereno Sereno 12 81 1020 vento: Nord N 5.5
13 Giugno 2024 01:00 tempo osservato: Sereno Sereno 12 81 1020 vento: Nord N 3.7
13 Giugno 2024 00:30 tempo osservato: Sereno Sereno 12 81 1020 vento: Nord N 3.7
13 Giugno 2024 00:00 tempo osservato: Sereno Sereno 13 71 1020 vento: Nord N 0
12 Giugno 2024 23:30 tempo osservato: Sereno Sereno 13 71 1021 vento: Nord N 1.8
12 Giugno 2024 23:00 tempo osservato: Sereno Sereno 13 66 1020 vento: Nord N 5.5
12 Giugno 2024 22:30 tempo osservato: Sereno Sereno 14 62 1020 vento: Nord N 5.5
12 Giugno 2024 22:00 tempo osservato: Sereno Sereno 15 54 1020 vento: Nord N 3.7
12 Giugno 2024 21:30 tempo osservato: Sereno Sereno 16 51 1020 vento: Nord N 5.5
12 Giugno 2024 21:00 tempo osservato: Sereno Sereno 16 51 1020 vento: Nord N 7.4
12 Giugno 2024 20:30 tempo osservato: Sereno Sereno 16 51 1020 vento: Nord N 9.3
12 Giugno 2024 20:00 tempo osservato: Sereno Sereno 17 45 1019 vento: Nord N/NO 11.1
12 Giugno 2024 19:30 tempo osservato: Sereno Sereno 18 42 1019 vento: Nord N 5.5
12 Giugno 2024 19:00 tempo osservato: Sereno Sereno 17 48 1019 vento: Nord NE 7.4
12 Giugno 2024 18:30 tempo osservato: Sereno Sereno 17 45 1019 vento: Nord N/NE 11.1
12 Giugno 2024 18:00 tempo osservato: Sereno Sereno 17 45 1020 vento: Nord N/NO 11.1
12 Giugno 2024 17:30 tempo osservato: Sereno Sereno 18 42 1020 vento: Nord N 5.5
12 Giugno 2024 17:00 tempo osservato: Sereno Sereno 17 48 1020 vento: Nord N 11.1
12 Giugno 2024 16:30 tempo osservato: Sereno Sereno 17 51 1020 vento: Nord N/NE 13
12 Giugno 2024 16:00 tempo osservato: Sereno Sereno 16 58 1020 vento: Nord N 14.8
12 Giugno 2024 15:30 tempo osservato: Sereno Sereno 15 67 1021 vento: Nord N 18.5
12 Giugno 2024 15:00 tempo osservato: Sereno Sereno 14 71 1021 vento: Nord N 18.5
12 Giugno 2024 14:30 tempo osservato: Sereno Sereno 17 45 1020 vento: Nord N/NO 7.4
12 Giugno 2024 14:00 tempo osservato: Sereno Sereno 18 39 1020 vento: Nord N 5.5